createdAt,value
2024-05-09T00:00:18.463Z,2.40
2024-05-09T00:05:19.144Z,3.03
2024-05-09T00:10:18.226Z,10.90
2024-05-09T00:15:18.311Z,4.90
2024-05-09T00:20:17.470Z,3.53
2024-05-09T00:25:13.348Z,3.10
2024-05-09T00:30:07.267Z,3.00
2024-05-09T00:35:00.271Z,2.43
2024-05-09T00:39:52.943Z,2.80
2024-05-09T00:44:45.586Z,3.10
2024-05-09T00:49:38.446Z,2.90
2024-05-09T00:54:31.634Z,4.43
2024-05-09T00:59:25.297Z,3.50
2024-05-09T01:04:18.119Z,3.30
2024-05-09T01:09:11.305Z,3.43
2024-05-09T01:14:04.161Z,3.40
2024-05-09T01:18:57.240Z,3.20
2024-05-09T01:23:49.860Z,3.37
2024-05-09T01:28:42.556Z,3.67
2024-05-09T01:33:35.309Z,3.00
2024-05-09T01:38:28.076Z,3.10
2024-05-09T01:43:20.715Z,3.00
2024-05-09T01:48:13.425Z,2.97
2024-05-09T01:53:06.315Z,3.00
2024-05-09T01:57:58.868Z,2.90
2024-05-09T02:02:51.662Z,3.70
2024-05-09T02:07:44.322Z,3.83
2024-05-09T02:12:37.291Z,3.47
2024-05-09T02:17:29.988Z,3.90
2024-05-09T02:22:22.672Z,3.63
2024-05-09T02:27:15.246Z,3.50
2024-05-09T02:32:08.039Z,3.07
2024-05-09T02:37:00.722Z,3.70
2024-05-09T02:41:53.232Z,3.70
2024-05-09T02:46:46.169Z,4.40
2024-05-09T02:51:38.764Z,3.83
2024-05-09T02:56:31.371Z,3.50
2024-05-09T03:01:24.021Z,3.60
2024-05-09T03:06:16.863Z,3.80
2024-05-09T03:11:09.505Z,3.53
2024-05-09T03:16:02.316Z,3.67
2024-05-09T03:20:54.980Z,4.30
2024-05-09T03:25:47.690Z,3.30
2024-05-09T03:30:42.786Z,4.20
2024-05-09T03:35:36.150Z,3.20
2024-05-09T03:40:30.888Z,3.43
2024-05-09T03:45:23.960Z,3.47
2024-05-09T03:50:22.746Z,3.83
2024-05-09T03:55:22.422Z,3.73
2024-05-09T04:00:21.977Z,3.40
2024-05-09T04:05:20.115Z,3.33
2024-05-09T04:10:21.063Z,3.93
2024-05-09T04:15:20.433Z,3.47
2024-05-09T04:20:24.142Z,3.50
2024-05-09T04:25:25.556Z,3.10
2024-05-09T04:30:25.804Z,2.40
2024-05-09T04:35:26.905Z,2.60
2024-05-09T04:40:28.082Z,2.73
2024-05-09T04:45:25.867Z,3.00
2024-05-09T04:50:28.910Z,2.70
2024-05-09T04:55:26.758Z,3.20
2024-05-09T05:00:28.138Z,2.80
2024-05-09T05:05:25.259Z,3.17
2024-05-09T05:10:25.243Z,3.40
2024-05-09T05:15:21.891Z,3.13
2024-05-09T05:20:17.982Z,3.10
2024-05-09T05:25:17.852Z,3.57
2024-05-09T05:30:17.569Z,3.08
2024-05-09T05:35:13.919Z,3.10
2024-05-09T05:40:09.436Z,3.15
2024-05-09T05:45:08.276Z,2.80
2024-05-09T05:50:02.293Z,3.10
2024-05-09T05:54:55.510Z,3.55
2024-05-09T05:59:48.057Z,3.30
2024-05-09T06:04:40.705Z,3.88
2024-05-09T06:09:34.763Z,3.22
2024-05-09T06:14:27.395Z,3.13
2024-05-09T06:19:20.254Z,2.75
2024-05-09T06:24:13.552Z,3.53
2024-05-09T06:29:06.155Z,3.53
2024-05-09T06:33:58.850Z,2.92
2024-05-09T06:38:52.596Z,3.00
2024-05-09T06:43:45.435Z,2.72
2024-05-09T06:48:38.240Z,3.40
2024-05-09T06:53:30.938Z,3.33
2024-05-09T06:58:23.595Z,2.83
2024-05-09T07:03:18.385Z,2.47
2024-05-09T07:08:13.021Z,2.50
2024-05-09T07:13:12.813Z,3.17
2024-05-09T07:18:10.683Z,2.50
2024-05-09T07:23:03.954Z,3.00
2024-05-09T07:27:56.530Z,3.17
2024-05-09T07:32:49.433Z,3.75
2024-05-09T07:37:42.297Z,2.85
2024-05-09T07:42:35.029Z,2.35
2024-05-09T07:53:30.209Z,2.13
2024-05-09T07:57:35.682Z,2.33
2024-05-09T08:02:28.549Z,1.88
2024-05-09T08:07:21.237Z,2.33
2024-05-09T08:12:14.423Z,2.17
2024-05-09T08:17:07.501Z,2.33
2024-05-09T08:22:06.868Z,2.10
2024-05-09T08:26:59.505Z,2.03
2024-05-09T08:31:56.544Z,2.03
2024-05-09T08:36:49.821Z,2.03
2024-05-09T08:41:43.366Z,1.92
2024-05-09T08:46:37.114Z,1.80
2024-05-09T08:51:29.896Z,2.35
2024-05-09T08:56:27.177Z,1.92
2024-05-09T09:01:20.003Z,1.95
2024-05-09T09:06:18.569Z,1.58
2024-05-09T09:11:11.310Z,2.05
2024-05-09T09:16:04.256Z,1.83
2024-05-09T09:20:57.229Z,1.50
2024-05-09T09:25:50.110Z,1.35
2024-05-09T09:30:44.790Z,1.77
2024-05-09T09:35:39.401Z,1.35
2024-05-09T09:40:39.088Z,1.67
2024-05-09T09:45:36.912Z,2.20
2024-05-09T09:50:34.414Z,1.50
2024-05-09T09:55:28.572Z,1.90
2024-05-09T10:00:27.452Z,1.60
2024-05-09T10:05:25.147Z,1.45
2024-05-09T10:10:31.992Z,1.50
2024-05-09T10:15:25.965Z,1.48
2024-05-09T10:20:22.159Z,1.80
2024-05-09T10:25:20.456Z,1.48
2024-05-09T10:30:29.918Z,1.98
2024-05-09T10:35:32.479Z,1.63
2024-05-09T10:40:31.000Z,1.70
2024-05-09T10:45:24.873Z,1.60
2024-05-09T10:50:25.082Z,2.50
2024-05-09T10:55:21.405Z,1.77
2024-05-09T11:00:23.265Z,1.58
2024-05-09T11:05:22.975Z,1.95
2024-05-09T11:15:10.399Z,1.60
2024-05-09T11:20:13.282Z,1.95
2024-05-09T11:25:10.736Z,2.17
2024-05-09T11:30:07.246Z,1.85
2024-05-09T11:35:03.028Z,1.88
2024-05-09T11:39:57.011Z,1.90
2024-05-09T11:44:51.016Z,2.17
2024-05-09T11:49:44.291Z,1.80
2024-05-09T11:54:37.281Z,1.60
2024-05-09T11:59:29.982Z,1.90
2024-05-09T12:04:22.813Z,2.00
2024-05-09T12:09:15.508Z,1.70
2024-05-09T12:14:08.324Z,2.17
2024-05-09T12:19:01.164Z,1.43
2024-05-09T12:23:54.065Z,1.50
2024-05-09T12:28:46.699Z,2.20
2024-05-09T12:33:39.335Z,1.60
2024-05-09T12:38:33.606Z,1.93
2024-05-09T12:43:26.386Z,1.20
2024-05-09T12:48:19.423Z,1.87
2024-05-09T12:53:12.159Z,1.80
2024-05-09T12:58:04.983Z,1.80
2024-05-09T13:02:57.803Z,1.53
2024-05-09T13:07:50.567Z,2.00
2024-05-09T13:12:43.312Z,2.70
2024-05-09T13:17:36.088Z,1.70
2024-05-09T13:22:28.762Z,1.70
2024-05-09T13:27:21.415Z,1.60
2024-05-09T13:32:14.002Z,1.80
2024-05-09T13:37:06.890Z,1.57
2024-05-09T13:41:59.636Z,1.67
2024-05-09T13:46:52.464Z,2.03
2024-05-09T13:51:45.175Z,2.20
2024-05-09T13:56:38.606Z,1.93
2024-05-09T14:01:31.325Z,1.53
2024-05-09T14:06:24.036Z,1.80
2024-05-09T14:11:16.650Z,1.90
2024-05-09T14:16:09.494Z,1.70
2024-05-09T14:21:03.772Z,1.90
2024-05-09T14:25:56.828Z,1.70
2024-05-09T14:30:49.514Z,1.60
2024-05-09T14:35:42.393Z,1.93
2024-05-09T14:40:40.973Z,1.40
2024-05-09T14:45:36.452Z,1.57
2024-05-09T14:50:35.486Z,1.83
2024-05-09T14:55:31.250Z,1.50
2024-05-09T15:00:28.922Z,1.57
2024-05-09T15:05:26.013Z,3.40
2024-05-09T15:10:26.590Z,1.47
2024-05-09T15:15:27.297Z,1.37
2024-05-09T15:20:27.736Z,1.60
2024-05-09T15:25:26.833Z,1.60
2024-05-09T15:30:28.138Z,1.80
2024-05-09T15:35:23.942Z,2.10
2024-05-09T15:40:26.174Z,2.00
2024-05-09T15:45:29.426Z,2.30
2024-05-09T15:50:32.001Z,1.90
2024-05-09T15:55:34.122Z,1.67
2024-05-09T16:00:36.784Z,1.70
2024-05-09T16:05:34.514Z,2.20
2024-05-09T16:10:32.430Z,1.80
2024-05-09T16:15:26.531Z,1.73
2024-05-09T16:20:29.870Z,2.43
2024-05-09T16:25:31.102Z,2.13
2024-05-09T16:30:31.510Z,2.00
2024-05-09T16:35:27.619Z,3.00
2024-05-09T16:40:29.371Z,4.00
2024-05-09T16:45:30.595Z,3.37
2024-05-09T16:50:29.336Z,2.00
2024-05-09T16:55:25.521Z,1.70
2024-05-09T17:00:30.625Z,2.30
2024-05-09T17:05:31.244Z,2.97
2024-05-09T17:10:31.740Z,1.77
2024-05-09T17:15:26.367Z,2.00
2024-05-09T17:20:29.008Z,1.93
2024-05-09T17:25:26.206Z,1.93
2024-05-09T17:30:28.330Z,2.20
2024-05-09T17:35:25.226Z,1.97
2024-05-09T17:40:27.067Z,1.70
2024-05-09T17:45:23.999Z,2.30
2024-05-09T17:50:23.874Z,2.13
2024-05-09T17:55:20.519Z,2.83
2024-05-09T18:00:17.398Z,3.27
2024-05-09T18:05:14.359Z,2.57
2024-05-09T18:10:15.926Z,2.83
2024-05-09T18:15:14.602Z,3.07
2024-05-09T18:20:11.274Z,3.53
2024-05-09T18:25:07.194Z,3.50
2024-05-09T18:30:07.078Z,4.63
2024-05-09T18:35:01.158Z,5.10
2024-05-09T18:39:53.813Z,4.67
2024-05-09T18:44:50.858Z,5.27
2024-05-09T18:49:46.172Z,4.60
2024-05-09T18:54:40.132Z,4.13
2024-05-09T18:59:32.741Z,4.50
2024-05-09T19:04:25.605Z,4.77
2024-05-09T19:09:18.298Z,5.63
2024-05-09T19:14:10.905Z,5.50
2024-05-09T19:19:07.389Z,4.60
2024-05-09T19:24:00.276Z,4.77
2024-05-09T19:28:53.217Z,3.83
2024-05-09T19:33:46.017Z,3.80
2024-05-09T19:38:38.739Z,3.30
2024-05-09T19:43:33.780Z,3.00
2024-05-09T19:48:28.153Z,2.60
2024-05-09T19:53:20.833Z,2.40
2024-05-09T19:58:13.588Z,2.43
2024-05-09T20:03:06.896Z,2.57
2024-05-09T20:07:59.722Z,2.90
2024-05-09T20:12:52.634Z,2.90
2024-05-09T20:17:45.204Z,2.90
2024-05-09T20:22:38.088Z,2.50
2024-05-09T20:27:30.694Z,2.80
2024-05-09T20:32:23.392Z,2.60
2024-05-09T20:37:16.188Z,2.80
2024-05-09T20:42:12.467Z,2.70
2024-05-09T20:47:05.146Z,2.97
2024-05-09T20:51:57.996Z,3.63
2024-05-09T20:56:50.529Z,3.50
2024-05-09T21:01:48.112Z,4.00
2024-05-09T21:06:41.375Z,5.10
2024-05-09T21:11:34.024Z,4.80
2024-05-09T21:16:26.803Z,4.73
2024-05-09T21:21:19.971Z,5.90
2024-05-09T21:26:14.457Z,6.13
2024-05-09T21:31:08.483Z,5.73
2024-05-09T21:36:06.039Z,7.10
2024-05-09T21:40:59.442Z,6.60
2024-05-09T21:45:52.135Z,12.60
2024-05-09T21:50:45.227Z,10.83
2024-05-09T21:55:38.296Z,9.20
2024-05-09T22:00:36.586Z,11.07
2024-05-09T22:05:31.722Z,7.73
2024-05-09T22:10:30.743Z,8.40
2024-05-09T22:15:28.401Z,7.23
2024-05-09T22:20:28.832Z,8.00
2024-05-09T22:25:30.432Z,8.73
2024-05-09T22:30:31.174Z,9.97
2024-05-09T22:35:27.835Z,9.67
2024-05-09T22:40:29.021Z,9.03
2024-05-09T22:45:31.052Z,8.43
2024-05-09T22:50:26.986Z,9.53
2024-05-09T22:55:23.548Z,10.13
2024-05-09T23:00:18.775Z,8.87
2024-05-09T23:05:11.862Z,10.20
2024-05-09T23:10:10.833Z,10.83
2024-05-09T23:15:06.645Z,10.73
2024-05-09T23:20:00.755Z,9.90
2024-05-09T23:24:53.454Z,11.53
2024-05-09T23:29:46.182Z,9.47
2024-05-09T23:34:38.788Z,10.57
2024-05-09T23:39:31.430Z,9.83
2024-05-09T23:44:25.189Z,9.27
2024-05-09T23:49:18.995Z,9.10
2024-05-09T23:54:11.588Z,9.47
2024-05-09T23:59:04.482Z,9.33
